createdAt,value
2016-04-15T00:00:51.754Z,0
2016-04-15T00:01:51.772Z,0
2016-04-15T00:02:51.743Z,0
2016-04-15T00:03:51.762Z,0
2016-04-15T00:04:51.780Z,0
2016-04-15T00:05:51.751Z,0
2016-04-15T00:06:51.754Z,0
2016-04-15T00:07:51.773Z,0
2016-04-15T00:08:51.759Z,0
2016-04-15T00:09:51.747Z,0
2016-04-15T00:10:51.609Z,0
2016-04-15T00:11:51.721Z,0
2016-04-15T00:12:51.771Z,0
2016-04-15T00:13:51.742Z,0
2016-04-15T00:14:51.761Z,0
2016-04-15T00:15:51.731Z,0
2016-04-15T00:16:51.734Z,0
2016-04-15T00:17:51.737Z,0
2016-04-15T00:18:51.724Z,0
2016-04-15T00:19:51.727Z,0
2016-04-15T00:20:51.713Z,0
2016-04-15T00:21:51.716Z,0
2016-04-15T00:22:51.750Z,0
2016-04-15T00:23:51.705Z,0
2016-04-15T00:24:51.740Z,0
2016-04-15T00:25:51.727Z,0
2016-04-15T00:26:51.730Z,0
2016-04-15T00:27:51.702Z,0
2016-04-15T00:28:51.719Z,0
2016-04-15T00:29:51.707Z,0
2016-04-15T00:30:51.553Z,0
2016-04-15T00:31:51.431Z,0
2016-04-15T00:32:51.700Z,0
2016-04-15T00:33:51.703Z,0
2016-04-15T00:34:51.705Z,0
2016-04-15T00:35:51.700Z,0
2016-04-15T00:36:51.702Z,0
2016-04-15T00:37:51.705Z,0
2016-04-15T00:38:51.707Z,0
2016-04-15T00:39:51.695Z,0
2016-04-15T00:40:51.713Z,0
2016-04-15T00:41:51.715Z,0
2016-04-15T00:42:51.750Z,0
2016-04-15T00:43:51.720Z,0
2016-04-15T00:44:51.864Z,0
2016-04-15T00:45:51.711Z,0
2016-04-15T00:46:51.698Z,0
2016-04-15T00:47:51.701Z,0
2016-04-15T00:48:51.688Z,0
2016-04-15T00:49:51.690Z,0
2016-04-15T00:50:51.693Z,0
2016-04-15T00:51:51.696Z,0
2016-04-15T00:52:51.683Z,0
2016-04-15T00:53:51.701Z,0
2016-04-15T00:54:51.703Z,0
2016-04-15T00:55:51.691Z,0
2016-04-15T00:56:51.708Z,0
2016-04-15T00:57:51.711Z,0
2016-04-15T00:58:51.683Z,0
2016-04-15T00:59:51.654Z,0
2016-04-15T01:00:51.673Z,0
2016-04-15T01:01:51.676Z,0
2016-04-15T01:02:51.679Z,0
2016-04-15T01:03:51.666Z,0
2016-04-15T01:04:51.668Z,0
2016-04-15T01:05:51.671Z,0
2016-04-15T01:06:51.673Z,0
2016-04-15T01:07:51.660Z,0
2016-04-15T01:08:51.663Z,0
2016-04-15T01:09:51.651Z,0
2016-04-15T01:10:51.653Z,0
2016-04-15T01:11:51.671Z,0
2016-04-15T01:12:51.658Z,0
2016-04-15T01:13:51.676Z,0
2016-04-15T01:14:51.679Z,0
2016-04-15T01:15:51.650Z,0
2016-04-15T01:16:51.654Z,0
2016-04-15T01:17:51.656Z,0
2016-04-15T01:18:51.675Z,0
2016-04-15T01:19:51.662Z,0
2016-04-15T01:20:51.648Z,0
2016-04-15T01:21:51.667Z,0
2016-04-15T01:22:51.653Z,0
2016-04-15T01:23:51.641Z,0
2016-04-15T01:24:51.628Z,0
2016-04-15T01:25:51.646Z,0
2016-04-15T01:26:51.634Z,0
2016-04-15T01:27:51.652Z,0
2016-04-15T01:28:51.655Z,0
2016-04-15T01:29:52.080Z,0
2016-04-15T01:30:51.644Z,0
2016-04-15T01:31:51.647Z,0
2016-04-15T01:32:51.634Z,0
2016-04-15T01:33:51.652Z,0
2016-04-15T01:34:51.640Z,0
2016-04-15T01:35:51.643Z,0
2016-04-15T01:36:51.645Z,0
2016-04-15T01:37:51.648Z,0
2016-04-15T01:38:51.650Z,0
2016-04-15T01:39:51.637Z,0
2016-04-15T01:40:51.624Z,0
2016-04-15T01:41:51.642Z,0
2016-04-15T01:42:51.615Z,0
2016-04-15T01:43:51.648Z,0
2016-04-15T01:44:51.510Z,0
2016-04-15T01:45:51.638Z,0
2016-04-15T01:46:51.625Z,0
2016-04-15T01:47:51.659Z,0
2016-04-15T01:48:51.614Z,0
2016-04-15T01:49:51.617Z,0
2016-04-15T01:50:51.636Z,0
2016-04-15T01:51:51.622Z,0
2016-04-15T01:52:51.641Z,0
2016-04-15T01:53:51.643Z,0
2016-04-15T01:54:51.630Z,0
2016-04-15T01:55:51.602Z,0
2016-04-15T01:56:51.604Z,0
2016-04-15T01:57:51.608Z,0
2016-04-15T01:58:51.610Z,0
2016-04-15T01:59:51.722Z,0
2016-04-15T02:00:51.631Z,0
2016-04-15T02:01:51.650Z,0
2016-04-15T02:02:51.605Z,0
2016-04-15T02:03:51.624Z,0
2016-04-15T02:04:51.610Z,0
2016-04-15T02:05:51.660Z,0
2016-04-15T02:06:51.616Z,0
2016-04-15T02:07:51.619Z,0
2016-04-15T02:08:51.607Z,0
2016-04-15T02:09:51.593Z,0
2016-04-15T02:10:51.612Z,0
2016-04-15T02:11:51.599Z,0
2016-04-15T02:12:51.585Z,0
2016-04-15T02:13:51.635Z,0
2016-04-15T02:14:51.622Z,0
2016-04-15T02:15:51.593Z,0
2016-04-15T02:16:51.612Z,0
2016-04-15T02:17:51.598Z,0
2016-04-15T02:18:51.617Z,0
2016-04-15T02:19:51.572Z,0
2016-04-15T02:20:51.606Z,0
2016-04-15T02:21:51.578Z,0
2016-04-15T02:22:51.580Z,0
2016-04-15T02:23:51.584Z,0
2016-04-15T02:24:51.555Z,0
2016-04-15T02:25:51.573Z,0
2016-04-15T02:26:51.592Z,0
2016-04-15T02:27:51.578Z,0
2016-04-15T02:28:51.566Z,0
2016-04-15T02:29:51.522Z,0
2016-04-15T02:30:51.571Z,0
2016-04-15T02:31:51.558Z,0
2016-04-15T02:32:51.577Z,0
2016-04-15T02:33:51.548Z,0
2016-04-15T02:34:51.566Z,0
2016-04-15T02:35:51.568Z,0
2016-04-15T02:36:51.571Z,0
2016-04-15T02:37:51.543Z,0
2016-04-15T02:38:51.546Z,0
2016-04-15T02:39:51.549Z,0
2016-04-15T02:40:51.551Z,0
2016-04-15T02:41:51.585Z,0
2016-04-15T02:42:51.573Z,0
2016-04-15T02:43:51.559Z,0
2016-04-15T02:44:51.562Z,0
2016-04-15T02:45:51.548Z,0
2016-04-15T02:46:50.786Z,0
2016-04-15T02:47:51.554Z,0
2016-04-15T02:48:51.542Z,0
2016-04-15T02:49:51.560Z,0
2016-04-15T02:50:51.548Z,0
2016-04-15T02:51:51.550Z,0
2016-04-15T02:52:51.537Z,0
2016-04-15T02:53:51.556Z,0
2016-04-15T02:54:51.558Z,0
2016-04-15T02:55:51.545Z,0
2016-04-15T02:56:51.531Z,0
2016-04-15T02:57:51.566Z,0
2016-04-15T02:58:51.553Z,0
2016-04-15T02:59:51.539Z,0
2016-04-15T03:00:51.527Z,0
2016-04-15T03:01:51.545Z,0
2016-04-15T03:02:51.533Z,0
2016-04-15T03:03:51.519Z,0
2016-04-15T03:04:51.507Z,0
2016-04-15T03:05:51.541Z,0
2016-04-15T03:06:51.527Z,0
2016-04-15T03:07:51.515Z,0
2016-04-15T03:08:51.533Z,0
2016-04-15T03:09:51.551Z,0
2016-04-15T03:10:51.523Z,0
2016-04-15T03:11:51.509Z,0
2016-04-15T03:12:51.528Z,0
2016-04-15T03:13:51.546Z,0
2016-04-15T03:14:51.517Z,0
2016-04-15T03:15:51.504Z,0
2016-04-15T03:16:51.523Z,0
2016-04-15T03:17:51.509Z,0
2016-04-15T03:18:51.497Z,0
2016-04-15T03:19:51.531Z,0
2016-04-15T03:20:51.518Z,0
2016-04-15T03:21:51.521Z,0
2016-04-15T03:22:51.508Z,0
2016-04-15T03:23:51.495Z,0
2016-04-15T03:24:51.514Z,0
2016-04-15T03:25:51.531Z,0
2016-04-15T03:26:51.519Z,0
2016-04-15T03:27:51.489Z,0
2016-04-15T03:28:51.492Z,0
2016-04-15T03:29:51.480Z,0
2016-04-15T03:30:51.498Z,0
2016-04-15T03:31:51.501Z,0
2016-04-15T03:32:51.503Z,0
2016-04-15T03:33:51.506Z,0
2016-04-15T03:34:51.494Z,0
2016-04-15T03:35:51.480Z,0
2016-04-15T03:36:51.483Z,0
2016-04-15T03:37:51.470Z,0
2016-04-15T03:38:51.473Z,0
2016-04-15T03:39:51.460Z,0
2016-04-15T03:40:51.510Z,0
2016-04-15T03:41:51.512Z,0
2016-04-15T03:42:51.515Z,0
2016-04-15T03:43:51.502Z,0
2016-04-15T03:44:51.489Z,0
2016-04-15T03:45:51.476Z,0
2016-04-15T03:46:51.479Z,0
2016-04-15T03:47:51.466Z,0
2016-04-15T03:48:51.484Z,0
2016-04-15T03:49:51.487Z,0
2016-04-15T03:50:51.458Z,0
2016-04-15T03:51:51.508Z,0
2016-04-15T03:52:51.464Z,0
2016-04-15T03:53:51.466Z,0
2016-04-15T03:54:51.469Z,0
2016-04-15T03:55:51.612Z,0
2016-04-15T03:56:51.474Z,0
2016-04-15T03:57:51.445Z,0
2016-04-15T03:58:51.463Z,0
2016-04-15T03:59:51.482Z,0
2016-04-15T04:00:51.438Z,0
2016-04-15T04:01:51.441Z,0
2016-04-15T04:02:51.459Z,0
2016-04-15T04:03:51.461Z,0
2016-04-15T04:04:51.464Z,0
2016-04-15T04:05:51.452Z,0
2016-04-15T04:06:51.469Z,0
2016-04-15T04:07:51.301Z,0
2016-04-15T04:08:51.460Z,0
2016-04-15T04:09:51.462Z,0
2016-04-15T04:10:51.449Z,4
2016-04-15T04:11:51.468Z,4
2016-04-15T04:12:51.440Z,4
2016-04-15T04:13:51.457Z,0
2016-04-15T04:14:51.429Z,4
2016-04-15T04:15:51.448Z,4
2016-04-15T04:16:51.450Z,4
2016-04-15T04:17:51.468Z,4
2016-04-15T04:18:51.456Z,4
2016-04-15T04:19:51.442Z,8
2016-04-15T04:20:51.429Z,4
2016-04-15T04:21:51.432Z,8
2016-04-15T04:22:51.434Z,8
2016-04-15T04:23:51.437Z,8
2016-04-15T04:24:51.455Z,12
2016-04-15T04:25:51.458Z,12
2016-04-15T04:26:51.430Z,12
2016-04-15T04:27:51.464Z,12
2016-04-15T04:28:51.436Z,12
2016-04-15T04:29:51.439Z,12
2016-04-15T04:30:51.441Z,12
2016-04-15T04:31:51.444Z,12
2016-04-15T04:32:51.431Z,12
2016-04-15T04:33:51.417Z,12
2016-04-15T04:34:51.420Z,16
2016-04-15T04:35:51.438Z,16
2016-04-15T04:36:51.410Z,20
2016-04-15T04:37:51.413Z,24
2016-04-15T04:38:51.430Z,24
2016-04-15T04:39:51.433Z,24
2016-04-15T04:40:51.435Z,28
2016-04-15T04:41:51.438Z,28
2016-04-15T04:42:51.426Z,28
2016-04-15T04:43:51.429Z,36
2016-04-15T04:44:51.447Z,40
2016-04-15T04:45:51.449Z,48
2016-04-15T04:46:51.406Z,52
2016-04-15T04:47:51.440Z,60
2016-04-15T04:48:51.411Z,64
2016-04-15T04:49:51.414Z,72
2016-04-15T04:50:51.416Z,76
2016-04-15T04:51:51.529Z,80
2016-04-15T04:52:51.431Z,88
2016-04-15T04:53:51.251Z,88
2016-04-15T04:54:52.634Z,96
2016-04-15T04:55:51.433Z,100
2016-04-15T04:56:51.592Z,100
2016-04-15T04:57:51.406Z,100
2016-04-15T04:58:51.409Z,92
2016-04-15T04:59:51.412Z,88
2016-04-15T05:00:51.587Z,84
2016-04-15T05:01:51.417Z,84
2016-04-15T05:02:51.405Z,84
2016-04-15T05:03:51.392Z,88
2016-04-15T05:04:51.410Z,88
2016-04-15T05:05:51.413Z,92
2016-04-15T05:06:51.415Z,92
2016-04-15T05:07:51.402Z,100
2016-04-15T05:08:51.405Z,108
2016-04-15T05:09:51.423Z,116
2016-04-15T05:10:51.395Z,128
2016-04-15T05:11:51.429Z,144
2016-04-15T05:12:51.416Z,168
2016-04-15T05:13:51.403Z,192
2016-04-15T05:14:51.437Z,200
2016-04-15T05:15:51.455Z,200
2016-04-15T05:16:51.396Z,196
2016-04-15T05:17:51.367Z,200
2016-04-15T05:18:51.401Z,200
2016-04-15T05:19:51.403Z,200
2016-04-15T05:20:51.390Z,200
2016-04-15T05:21:51.393Z,196
2016-04-15T05:22:51.395Z,192
2016-04-15T05:23:51.398Z,184
2016-04-15T05:24:51.386Z,176
2016-04-15T05:25:51.403Z,168
2016-04-15T05:26:51.391Z,168
2016-04-15T05:27:51.378Z,172
2016-04-15T05:28:51.397Z,176
2016-04-15T05:29:51.400Z,188
2016-04-15T05:30:51.542Z,208
2016-04-15T05:31:51.389Z,224
2016-04-15T05:32:51.407Z,240
2016-04-15T05:33:51.410Z,272
2016-04-15T05:34:51.366Z,312
2016-04-15T05:35:51.399Z,352
2016-04-15T05:36:51.403Z,384
2016-04-15T05:37:51.389Z,404
2016-04-15T05:38:51.392Z,420
2016-04-15T05:39:51.395Z,436
2016-04-15T05:40:51.413Z,456
2016-04-15T05:41:51.385Z,456
2016-04-15T05:42:51.371Z,452
2016-04-15T05:43:51.390Z,452
2016-04-15T05:44:51.393Z,440
2016-04-15T05:45:51.535Z,420
2016-04-15T05:46:51.413Z,392
2016-04-15T05:47:51.369Z,368
2016-04-15T05:48:51.387Z,356
2016-04-15T05:49:51.374Z,352
2016-04-15T05:50:51.362Z,352
2016-04-15T05:51:51.395Z,356
2016-04-15T05:52:51.368Z,356
2016-04-15T05:53:51.401Z,364
2016-04-15T05:54:51.404Z,388
2016-04-15T05:55:51.376Z,420
2016-04-15T05:56:51.378Z,456
2016-04-15T05:57:51.396Z,496
2016-04-15T05:58:51.383Z,528
2016-04-15T05:59:51.386Z,500
2016-04-15T06:00:51.451Z,448
2016-04-15T06:01:51.406Z,392
2016-04-15T06:02:51.363Z,360
2016-04-15T06:03:51.396Z,340
2016-04-15T06:04:51.430Z,332
2016-04-15T06:05:51.417Z,348
2016-04-15T06:06:51.373Z,376
2016-04-15T06:07:51.376Z,412
2016-04-15T06:08:51.379Z,436
2016-04-15T06:09:51.382Z,456
2016-04-15T06:10:51.385Z,488
2016-04-15T06:11:51.356Z,536
2016-04-15T06:12:51.358Z,604
2016-04-15T06:13:51.361Z,676
2016-04-15T06:14:51.363Z,728
2016-04-15T06:15:51.444Z,764
2016-04-15T06:16:51.369Z,860
2016-04-15T06:17:51.387Z,956
2016-04-15T06:18:51.359Z,1048
2016-04-15T06:19:51.377Z,1152
2016-04-15T06:20:51.365Z,1232
2016-04-15T06:21:51.373Z,1272
2016-04-15T06:22:51.376Z,1256
2016-04-15T06:23:51.364Z,1184
2016-04-15T06:24:51.367Z,1056
2016-04-15T06:25:51.369Z,944
2016-04-15T06:26:51.294Z,872
2016-04-15T06:27:51.363Z,832
2016-04-15T06:28:51.382Z,832
2016-04-15T06:29:51.368Z,856
2016-04-15T06:30:51.434Z,896
2016-04-15T06:31:51.374Z,956
2016-04-15T06:32:51.361Z,1036
2016-04-15T06:33:51.380Z,1140
2016-04-15T06:34:51.367Z,1256
2016-04-15T06:35:51.463Z,1376
2016-04-15T06:36:51.357Z,1476
2016-04-15T06:37:51.375Z,1544
2016-04-15T06:38:51.362Z,1616
2016-04-15T06:39:51.365Z,1756
2016-04-15T06:40:51.382Z,1976
2016-04-15T06:41:51.385Z,2192
2016-04-15T06:42:51.404Z,2304
2016-04-15T06:43:51.375Z,2384
2016-04-15T06:44:51.378Z,2436
2016-04-15T06:45:51.395Z,2404
2016-04-15T06:46:51.352Z,2224
2016-04-15T06:47:51.386Z,1868
2016-04-15T06:48:51.372Z,1588
2016-04-15T06:49:51.407Z,1420
2016-04-15T06:50:51.456Z,1356
2016-04-15T06:51:51.366Z,1348
2016-04-15T06:52:51.353Z,1336
2016-04-15T06:53:51.371Z,1276
2016-04-15T06:54:51.374Z,1184
2016-04-15T06:55:51.360Z,1124
2016-04-15T06:56:51.379Z,1100
2016-04-15T06:57:51.382Z,1112
2016-04-15T06:58:51.385Z,1144
2016-04-15T06:59:51.403Z,1172
2016-04-15T07:00:51.406Z,1200
2016-04-15T07:01:51.361Z,1240
2016-04-15T07:02:51.364Z,1264
2016-04-15T07:03:51.413Z,1256
2016-04-15T07:04:51.369Z,1260
2016-04-15T07:05:51.357Z,1296
2016-04-15T07:06:51.359Z,1324
2016-04-15T07:07:51.377Z,1380
2016-04-15T07:08:51.396Z,1440
2016-04-15T07:09:51.367Z,1484
2016-04-15T07:10:51.370Z,1500
2016-04-15T07:11:51.372Z,1488
2016-04-15T07:12:51.375Z,1428
2016-04-15T07:13:51.393Z,1384
2016-04-15T07:14:51.396Z,1356
2016-04-15T07:15:51.431Z,1356
2016-04-15T07:16:51.401Z,1356
2016-04-15T07:17:51.389Z,1340
2016-04-15T07:18:51.376Z,1376
2016-04-15T07:19:51.363Z,1480
2016-04-15T07:20:51.381Z,1600
2016-04-15T07:21:51.388Z,1720
2016-04-15T07:22:51.391Z,1828
2016-04-15T07:23:51.410Z,1884
2016-04-15T07:24:51.380Z,1940
2016-04-15T07:25:51.399Z,2000
2016-04-15T07:26:51.370Z,2048
2016-04-15T07:27:51.393Z,2060
2016-04-15T07:28:51.366Z,2072
2016-04-15T07:29:51.384Z,2080
2016-04-15T07:30:51.371Z,2052
2016-04-15T07:31:51.405Z,2016
2016-04-15T07:32:51.376Z,1996
2016-04-15T07:33:51.410Z,1960
2016-04-15T07:34:51.397Z,1872
2016-04-15T07:35:51.431Z,1808
2016-04-15T07:36:51.450Z,1772
2016-04-15T07:37:51.389Z,1740
2016-04-15T07:38:51.392Z,1688
2016-04-15T07:39:51.395Z,1664
2016-04-15T07:40:51.366Z,1700
2016-04-15T07:41:51.370Z,1796
2016-04-15T07:42:51.387Z,1928
2016-04-15T07:43:51.406Z,2064
2016-04-15T07:44:51.409Z,2196
2016-04-15T07:45:51.395Z,2320
2016-04-15T07:46:51.398Z,2440
2016-04-15T07:47:51.385Z,2536
2016-04-15T07:48:51.388Z,2592
2016-04-15T07:49:51.391Z,2576
2016-04-15T07:50:51.377Z,2524
2016-04-15T07:51:51.396Z,2436
2016-04-15T07:52:51.429Z,2300
2016-04-15T07:53:51.370Z,2192
2016-04-15T07:54:51.404Z,2068
2016-04-15T07:55:51.406Z,1944
2016-04-15T07:56:51.379Z,1844
2016-04-15T07:57:51.396Z,1820
2016-04-15T07:58:51.399Z,1780
2016-04-15T07:59:51.401Z,1796
2016-04-15T08:00:51.404Z,1840
2016-04-15T08:01:51.376Z,1856
2016-04-15T08:02:51.378Z,1868
2016-04-15T08:03:51.381Z,1920
2016-04-15T08:04:51.228Z,2048
2016-04-15T08:05:51.387Z,2308
2016-04-15T08:06:51.390Z,2624
2016-04-15T08:07:51.409Z,2900
2016-04-15T08:08:51.395Z,3112
2016-04-15T08:09:51.382Z,3164
2016-04-15T08:10:51.384Z,3156
2016-04-15T08:11:51.372Z,3208
2016-04-15T08:12:51.390Z,3312
2016-04-15T08:13:51.424Z,3428
2016-04-15T08:14:51.395Z,3584
2016-04-15T08:15:51.366Z,3832
2016-04-15T08:16:51.417Z,4140
2016-04-15T08:17:51.388Z,4416
2016-04-15T08:18:51.406Z,4640
2016-04-15T08:19:51.425Z,4892
2016-04-15T08:20:51.427Z,5172
2016-04-15T08:21:51.404Z,5428
2016-04-15T08:22:51.376Z,5776
2016-04-15T08:23:51.394Z,5912
2016-04-15T08:24:51.397Z,6120
2016-04-15T08:25:51.383Z,6368
2016-04-15T08:26:51.417Z,6572
2016-04-15T08:27:51.405Z,6616
2016-04-15T08:28:51.391Z,6476
2016-04-15T08:29:51.411Z,6116
2016-04-15T08:30:51.413Z,5688
2016-04-15T08:31:51.421Z,5500
2016-04-15T08:32:51.450Z,5196
2016-04-15T08:33:51.730Z,4792
2016-04-15T08:34:51.540Z,4240
2016-04-15T08:35:51.555Z,3764
2016-04-15T08:36:51.628Z,3412
2016-04-15T08:37:51.631Z,3160
2016-04-15T08:38:51.664Z,3024
2016-04-15T08:39:51.667Z,3008
2016-04-15T08:40:51.685Z,3056
2016-04-15T08:41:51.702Z,3164
2016-04-15T08:42:51.678Z,3356
2016-04-15T08:43:51.718Z,3648
2016-04-15T08:44:51.711Z,3984
2016-04-15T08:45:51.735Z,4204
2016-04-15T08:46:51.742Z,4400
2016-04-15T08:47:51.731Z,4508
2016-04-15T08:48:51.719Z,4460
2016-04-15T08:49:52.302Z,4268
2016-04-15T08:50:51.760Z,3988
2016-04-15T08:51:51.765Z,3696
2016-04-15T08:52:51.737Z,3576
2016-04-15T08:53:51.740Z,3536
2016-04-15T08:54:51.760Z,3536
2016-04-15T08:55:51.747Z,3488
2016-04-15T08:56:51.750Z,3580
2016-04-15T08:57:51.738Z,3976
2016-04-15T08:58:51.725Z,4712
2016-04-15T08:59:51.745Z,5704
2016-04-15T09:00:51.747Z,6628
2016-04-15T09:01:51.765Z,7280
2016-04-15T09:02:51.753Z,7772
2016-04-15T09:03:51.724Z,8144
2016-04-15T09:04:51.759Z,8384
2016-04-15T09:05:51.762Z,8560
2016-04-15T09:06:51.764Z,8708
2016-04-15T09:07:51.767Z,8812
2016-04-15T09:08:51.769Z,8844
2016-04-15T09:09:51.756Z,8884
2016-04-15T09:10:51.759Z,8884
2016-04-15T09:11:51.777Z,8888
2016-04-15T09:12:51.764Z,8424
2016-04-15T09:13:51.766Z,7628
2016-04-15T09:14:51.769Z,7200
2016-04-15T09:15:51.788Z,7336
2016-04-15T09:16:51.759Z,7592
2016-04-15T09:17:51.747Z,7580
2016-04-15T09:18:51.780Z,7372
2016-04-15T09:19:51.799Z,7240
2016-04-15T09:20:51.785Z,7040
2016-04-15T09:21:51.788Z,6576
2016-04-15T09:22:51.775Z,6040
2016-04-15T09:23:51.778Z,5580
2016-04-15T09:24:51.765Z,5480
2016-04-15T09:25:51.784Z,5432
2016-04-15T09:26:51.818Z,5364
2016-04-15T09:27:51.789Z,5332
2016-04-15T09:28:51.807Z,5496
2016-04-15T09:29:51.794Z,5896
2016-04-15T09:30:51.782Z,6392
2016-04-15T09:31:51.784Z,6944
2016-04-15T09:32:51.787Z,7776
2016-04-15T09:33:51.804Z,8828
2016-04-15T09:34:51.807Z,9836
2016-04-15T09:35:51.810Z,10760
2016-04-15T09:36:51.782Z,11240
2016-04-15T09:37:51.816Z,11412
2016-04-15T09:38:51.818Z,11432
2016-04-15T09:39:51.806Z,11472
2016-04-15T09:40:51.808Z,11224
2016-04-15T09:41:51.811Z,10696
2016-04-15T09:42:51.798Z,9836
2016-04-15T09:43:51.816Z,8604
2016-04-15T09:44:51.834Z,7700
2016-04-15T09:45:51.805Z,7032
2016-04-15T09:46:51.839Z,6904
2016-04-15T09:47:51.811Z,7276
2016-04-15T09:48:51.830Z,8104
2016-04-15T09:49:51.833Z,8908
2016-04-15T09:50:51.804Z,9232
2016-04-15T09:51:51.822Z,9332
2016-04-15T09:52:51.840Z,9228
2016-04-15T09:53:51.827Z,8820
2016-04-15T09:54:51.815Z,8004
2016-04-15T09:55:51.677Z,7148
2016-04-15T09:56:51.836Z,6604
2016-04-15T09:57:51.839Z,6440
2016-04-15T09:58:51.841Z,6660
2016-04-15T09:59:51.844Z,6572
2016-04-15T10:00:51.862Z,6204
2016-04-15T10:01:51.849Z,5720
2016-04-15T10:02:51.867Z,5320
2016-04-15T10:03:51.870Z,5228
2016-04-15T10:04:51.857Z,5284
2016-04-15T10:05:51.875Z,5324
2016-04-15T10:06:51.878Z,5312
2016-04-15T10:07:51.850Z,5264
2016-04-15T10:08:51.868Z,5260
2016-04-15T10:09:51.871Z,5336
2016-04-15T10:10:51.873Z,5388
2016-04-15T10:11:51.876Z,5444
2016-04-15T10:12:51.909Z,5584
2016-04-15T10:13:51.881Z,5876
2016-04-15T10:14:51.900Z,6388
2016-04-15T10:15:51.871Z,6636
2016-04-15T10:16:52.108Z,6528
2016-04-15T10:17:51.891Z,6252
2016-04-15T10:18:51.879Z,5936
2016-04-15T10:19:51.913Z,5724
2016-04-15T10:20:51.900Z,5668
2016-04-15T10:21:51.888Z,5572
2016-04-15T10:22:51.890Z,5456
2016-04-15T10:23:51.893Z,5252
2016-04-15T10:24:51.895Z,4904
2016-04-15T10:25:51.929Z,4684
2016-04-15T10:26:51.151Z,4408
2016-04-15T10:27:51.919Z,4212
2016-04-15T10:28:51.907Z,3900
2016-04-15T10:29:51.910Z,3452
2016-04-15T10:30:51.927Z,3140
2016-04-15T10:31:52.149Z,3000
2016-04-15T10:32:51.917Z,2992
2016-04-15T10:33:51.920Z,3072
2016-04-15T10:34:51.922Z,3164
2016-04-15T10:35:51.925Z,3144
2016-04-15T10:36:51.912Z,3096
2016-04-15T10:37:51.930Z,3072
2016-04-15T10:38:51.934Z,3072
2016-04-15T10:39:51.936Z,3012
2016-04-15T10:40:51.939Z,3012
2016-04-15T10:41:51.941Z,3004
2016-04-15T10:42:51.912Z,2880
2016-04-15T10:43:51.947Z,2672
2016-04-15T10:44:51.949Z,2504
2016-04-15T10:45:51.967Z,2400
2016-04-15T10:46:51.813Z,2352
2016-04-15T10:47:51.925Z,2396
2016-04-15T10:48:51.944Z,2448
2016-04-15T10:49:51.930Z,2528
2016-04-15T10:50:51.950Z,2656
2016-04-15T10:51:51.936Z,2816
2016-04-15T10:52:51.971Z,2952
2016-04-15T10:53:51.941Z,3064
2016-04-15T10:54:51.944Z,3324
2016-04-15T10:55:51.947Z,3776
2016-04-15T10:56:51.935Z,4340
2016-04-15T10:57:51.938Z,4780
2016-04-15T10:58:51.956Z,5056
2016-04-15T10:59:51.927Z,5232
2016-04-15T11:00:51.946Z,5300
2016-04-15T11:01:52.027Z,5208
2016-04-15T11:02:51.951Z,5088
2016-04-15T11:03:51.954Z,4984
2016-04-15T11:04:51.940Z,5092
2016-04-15T11:05:51.959Z,5396
2016-04-15T11:06:51.976Z,5400
2016-04-15T11:07:51.979Z,5344
2016-04-15T11:08:51.967Z,5624
2016-04-15T11:09:51.954Z,6488
2016-04-15T11:10:51.973Z,7696
2016-04-15T11:11:51.959Z,8872
2016-04-15T11:12:51.962Z,9700
2016-04-15T11:13:51.949Z,10244
2016-04-15T11:14:51.983Z,10816
2016-04-15T11:15:51.986Z,10928
2016-04-15T11:16:51.878Z,11544
2016-04-15T11:17:51.975Z,11544
2016-04-15T11:18:51.993Z,11136
2016-04-15T11:19:51.980Z,10816
2016-04-15T11:20:51.967Z,10620
2016-04-15T11:21:51.970Z,10540
2016-04-15T11:22:51.989Z,10376
2016-04-15T11:23:52.007Z,10224
2016-04-15T11:24:51.213Z,10288
2016-04-15T11:25:52.012Z,9992
2016-04-15T11:26:51.968Z,9632
2016-04-15T11:27:52.002Z,9608
2016-04-15T11:28:51.989Z,9432
2016-04-15T11:29:51.977Z,9340
2016-04-15T11:30:51.995Z,9668
2016-04-15T11:31:51.982Z,9380
2016-04-15T11:32:52.000Z,9124
2016-04-15T11:33:52.002Z,9808
2016-04-15T11:34:51.990Z,9768
2016-04-15T11:35:52.133Z,9732
2016-04-15T11:36:51.964Z,9852
2016-04-15T11:37:51.998Z,9896
2016-04-15T11:38:52.031Z,9744
2016-04-15T11:39:52.019Z,9512
2016-04-15T11:40:52.021Z,9644
2016-04-15T11:41:52.681Z,9020
2016-04-15T11:42:52.011Z,9160
2016-04-15T11:43:52.029Z,10128
2016-04-15T11:44:52.048Z,10064
2016-04-15T11:45:52.019Z,9220
2016-04-15T11:46:52.053Z,9328
2016-04-15T11:47:52.056Z,9668
2016-04-15T11:48:52.058Z,9952
2016-04-15T11:49:52.045Z,9972
2016-04-15T11:50:52.033Z,9000
2016-04-15T11:51:52.035Z,9416
2016-04-15T11:52:52.038Z,11496
2016-04-15T11:53:52.056Z,11128
2016-04-15T11:54:52.074Z,11152
2016-04-15T11:55:52.077Z,12128
2016-04-15T11:56:52.064Z,11704
2016-04-15T11:57:52.083Z,10324
2016-04-15T11:58:52.070Z,9260
2016-04-15T11:59:52.088Z,8412
2016-04-15T12:00:52.091Z,7920
2016-04-15T12:01:52.093Z,7696
2016-04-15T12:02:52.065Z,7872
2016-04-15T12:03:52.067Z,7776
2016-04-15T12:04:52.070Z,7596
2016-04-15T12:05:52.104Z,7396
2016-04-15T12:06:52.091Z,7780
2016-04-15T12:07:52.109Z,7872
2016-04-15T12:08:51.832Z,9576
2016-04-15T12:09:52.101Z,9144
2016-04-15T12:10:52.104Z,9660
2016-04-15T12:11:53.061Z,9524
2016-04-15T12:12:52.125Z,9584
2016-04-15T12:13:52.112Z,10216
2016-04-15T12:14:52.130Z,9776
2016-04-15T12:15:52.117Z,9144
2016-04-15T12:16:52.135Z,8944
2016-04-15T12:17:52.170Z,8744
2016-04-15T12:18:51.407Z,8460
2016-04-15T12:19:52.128Z,8212
2016-04-15T12:20:52.178Z,9128
2016-04-15T12:21:51.962Z,8800
2016-04-15T12:22:52.136Z,9432
2016-04-15T12:23:52.138Z,8800
2016-04-15T12:24:52.141Z,8212
2016-04-15T12:25:52.170Z,8576
2016-04-15T12:26:52.156Z,8636
2016-04-15T12:27:52.159Z,9028
2016-04-15T12:28:52.162Z,9240
2016-04-15T12:29:52.150Z,8652
2016-04-15T12:30:52.278Z,8200
2016-04-15T12:31:52.170Z,8616
2016-04-15T12:32:52.236Z,9088
2016-04-15T12:33:52.269Z,9060
2016-04-15T12:34:52.194Z,9020
2016-04-15T12:35:52.197Z,9208
2016-04-15T12:36:52.200Z,9432
2016-04-15T12:37:52.203Z,10128
2016-04-15T12:38:52.205Z,10932
2016-04-15T12:39:52.208Z,10844
2016-04-15T12:40:52.194Z,10636
2016-04-15T12:41:52.213Z,11000
2016-04-15T12:42:52.200Z,11000
2016-04-15T12:43:52.296Z,10888
2016-04-15T12:44:52.908Z,10576
2016-04-15T12:45:52.317Z,9984
2016-04-15T12:46:52.399Z,9688
2016-04-15T12:47:52.401Z,9424
2016-04-15T12:48:52.357Z,9432
2016-04-15T12:49:52.547Z,11220
2016-04-15T12:50:52.737Z,10632
2016-04-15T12:51:52.521Z,11020
2016-04-15T12:52:53.132Z,10784
2016-04-15T12:53:53.760Z,11360
2016-04-15T12:54:53.591Z,10952
2016-04-15T12:55:53.672Z,10036
2016-04-15T12:56:53.081Z,10364
2016-04-15T12:57:53.553Z,10032
2016-04-15T12:58:53.681Z,9880
2016-04-15T12:59:53.636Z,9784
2016-04-15T13:00:52.279Z,10328
2016-04-15T13:02:05.016Z,10752
2016-04-15T13:02:52.300Z,10388
2016-04-15T13:03:52.131Z,9224
2016-04-15T13:04:52.322Z,8852
2016-04-15T13:05:52.309Z,8204
2016-04-15T13:06:52.312Z,8140
2016-04-15T13:07:52.377Z,9060
2016-04-15T13:09:05.051Z,8528
2016-04-15T13:09:52.350Z,8936
2016-04-15T13:10:52.306Z,8956
2016-04-15T13:11:52.324Z,9520
2016-04-15T13:13:05.061Z,9820
2016-04-15T13:13:52.346Z,10364
2016-04-15T13:14:52.333Z,10200
2016-04-15T13:15:52.336Z,10212
2016-04-15T13:17:05.072Z,10536
2016-04-15T13:17:52.346Z,10816
2016-04-15T13:18:52.365Z,10440
2016-04-15T13:19:52.351Z,10008
2016-04-15T13:20:52.354Z,9716
2016-04-15T13:21:52.356Z,9700
2016-04-15T13:22:52.359Z,9472
2016-04-15T13:23:52.362Z,10104
2016-04-15T13:24:52.381Z,11356
2016-04-15T13:25:52.414Z,11472
2016-04-15T13:26:52.401Z,11336
2016-04-15T13:27:52.435Z,10640
2016-04-15T13:28:52.375Z,9788
2016-04-15T13:29:52.409Z,10048
2016-04-15T13:30:52.411Z,9620
2016-04-15T13:31:52.430Z,9124
2016-04-15T13:33:05.167Z,9068
2016-04-15T13:33:52.717Z,9740
2016-04-15T13:34:52.423Z,9640
2016-04-15T13:35:52.441Z,9064
2016-04-15T13:36:52.459Z,9668
2016-04-15T13:37:52.416Z,10492
2016-04-15T13:38:52.449Z,11032
2016-04-15T13:39:52.483Z,10604
2016-04-15T13:40:52.454Z,10404
2016-04-15T13:41:55.488Z,9484
2016-04-15T13:42:52.443Z,10188
2016-04-15T13:43:52.462Z,9612
2016-04-15T13:44:52.465Z,9156
2016-04-15T13:46:05.202Z,9768
2016-04-15T13:46:52.471Z,10544
2016-04-15T13:47:52.505Z,11152